sensor_id;sensor_type;location;lat;lon;timestamp;P1;durP1;ratioP1;P2;durP2;ratioP2
57663;SDS011;43493;53.098;6.064;2023-04-25T00:01:17;14.07;;;3.20;;
57663;SDS011;43493;53.098;6.064;2023-04-25T00:03:42;15.23;;;3.30;;
57663;SDS011;43493;53.098;6.064;2023-04-25T00:06:08;22.00;;;4.17;;
57663;SDS011;43493;53.098;6.064;2023-04-25T00:08:34;21.07;;;3.83;;
57663;SDS011;43493;53.098;6.064;2023-04-25T00:11:00;18.57;;;3.60;;
57663;SDS011;43493;53.098;6.064;2023-04-25T00:13:25;18.17;;;4.50;;
57663;SDS011;43493;53.098;6.064;2023-04-25T00:15:51;18.97;;;3.93;;
57663;SDS011;43493;53.098;6.064;2023-04-25T00:18:21;20.10;;;3.97;;
57663;SDS011;43493;53.098;6.064;2023-04-25T00:20:47;16.67;;;3.90;;
57663;SDS011;43493;53.098;6.064;2023-04-25T00:23:13;16.53;;;3.97;;
57663;SDS011;43493;53.098;6.064;2023-04-25T00:25:46;15.07;;;4.00;;
57663;SDS011;43493;53.098;6.064;2023-04-25T00:28:13;21.77;;;4.03;;
57663;SDS011;43493;53.098;6.064;2023-04-25T00:30:40;15.10;;;3.83;;
57663;SDS011;43493;53.098;6.064;2023-04-25T00:33:06;13.50;;;3.30;;
57663;SDS011;43493;53.098;6.064;2023-04-25T00:35:32;14.60;;;3.93;;
57663;SDS011;43493;53.098;6.064;2023-04-25T00:37:59;16.23;;;4.30;;
57663;SDS011;43493;53.098;6.064;2023-04-25T00:40:25;20.17;;;4.00;;
57663;SDS011;43493;53.098;6.064;2023-04-25T00:42:52;15.80;;;3.60;;
57663;SDS011;43493;53.098;6.064;2023-04-25T00:45:18;21.30;;;3.80;;
57663;SDS011;43493;53.098;6.064;2023-04-25T00:47:44;17.80;;;3.60;;
57663;SDS011;43493;53.098;6.064;2023-04-25T00:50:11;14.60;;;3.90;;
57663;SDS011;43493;53.098;6.064;2023-04-25T00:52:41;16.43;;;3.40;;
57663;SDS011;43493;53.098;6.064;2023-04-25T00:55:09;14.80;;;3.17;;
57663;SDS011;43493;53.098;6.064;2023-04-25T00:57:35;15.63;;;2.93;;
57663;SDS011;43493;53.098;6.064;2023-04-25T01:00:02;18.10;;;3.23;;
57663;SDS011;43493;53.098;6.064;2023-04-25T01:02:32;17.83;;;4.33;;
57663;SDS011;43493;53.098;6.064;2023-04-25T01:05:00;20.93;;;3.73;;
57663;SDS011;43493;53.098;6.064;2023-04-25T01:07:26;16.13;;;3.93;;
57663;SDS011;43493;53.098;6.064;2023-04-25T01:09:52;21.27;;;4.67;;
57663;SDS011;43493;53.098;6.064;2023-04-25T01:12:18;20.03;;;4.20;;
57663;SDS011;43493;53.098;6.064;2023-04-25T01:14:44;15.67;;;3.67;;
57663;SDS011;43493;53.098;6.064;2023-04-25T01:17:11;18.77;;;3.73;;
57663;SDS011;43493;53.098;6.064;2023-04-25T01:19:36;16.53;;;4.03;;
57663;SDS011;43493;53.098;6.064;2023-04-25T01:22:02;11.23;;;2.87;;
57663;SDS011;43493;53.098;6.064;2023-04-25T01:24:29;13.93;;;3.70;;
57663;SDS011;43493;53.098;6.064;2023-04-25T01:26:56;18.53;;;3.83;;
57663;SDS011;43493;53.098;6.064;2023-04-25T01:29:23;14.10;;;4.47;;
57663;SDS011;43493;53.098;6.064;2023-04-25T01:31:50;17.50;;;3.97;;
57663;SDS011;43493;53.098;6.064;2023-04-25T01:34:17;17.07;;;4.40;;
57663;SDS011;43493;53.098;6.064;2023-04-25T01:36:43;14.67;;;3.67;;
57663;SDS011;43493;53.098;6.064;2023-04-25T01:39:09;16.87;;;4.43;;
57663;SDS011;43493;53.098;6.064;2023-04-25T01:41:35;19.27;;;3.40;;
57663;SDS011;43493;53.098;6.064;2023-04-25T01:44:01;12.77;;;2.97;;
57663;SDS011;43493;53.098;6.064;2023-04-25T01:46:27;15.23;;;3.67;;
57663;SDS011;43493;53.098;6.064;2023-04-25T01:48:53;11.53;;;2.73;;
57663;SDS011;43493;53.098;6.064;2023-04-25T01:51:19;17.70;;;3.27;;
57663;SDS011;43493;53.098;6.064;2023-04-25T01:53:45;12.00;;;2.20;;
57663;SDS011;43493;53.098;6.064;2023-04-25T01:56:11;16.20;;;2.63;;
57663;SDS011;43493;53.098;6.064;2023-04-25T01:58:36;12.00;;;2.57;;
57663;SDS011;43493;53.098;6.064;2023-04-25T02:01:02;12.03;;;3.40;;
57663;SDS011;43493;53.098;6.064;2023-04-25T02:03:29;9.13;;;2.43;;
57663;SDS011;43493;53.098;6.064;2023-04-25T02:05:56;7.33;;;1.97;;
57663;SDS011;43493;53.098;6.064;2023-04-25T02:08:21;10.03;;;2.40;;
57663;SDS011;43493;53.098;6.064;2023-04-25T02:10:47;11.93;;;2.20;;
57663;SDS011;43493;53.098;6.064;2023-04-25T02:13:13;9.57;;;2.77;;
57663;SDS011;43493;53.098;6.064;2023-04-25T02:15:38;12.53;;;2.27;;
57663;SDS011;43493;53.098;6.064;2023-04-25T02:18:04;9.00;;;2.60;;
57663;SDS011;43493;53.098;6.064;2023-04-25T02:20:31;11.13;;;3.33;;
57663;SDS011;43493;53.098;6.064;2023-04-25T02:22:57;12.50;;;2.97;;
57663;SDS011;43493;53.098;6.064;2023-04-25T02:25:23;12.57;;;2.20;;
57663;SDS011;43493;53.098;6.064;2023-04-25T02:27:49;15.17;;;3.00;;
57663;SDS011;43493;53.098;6.064;2023-04-25T02:30:16;12.20;;;2.00;;
57663;SDS011;43493;53.098;6.064;2023-04-25T02:32:42;10.83;;;2.67;;
57663;SDS011;43493;53.098;6.064;2023-04-25T02:35:08;13.27;;;2.70;;
57663;SDS011;43493;53.098;6.064;2023-04-25T02:37:34;10.50;;;2.30;;
57663;SDS011;43493;53.098;6.064;2023-04-25T02:40:03;11.77;;;2.10;;
57663;SDS011;43493;53.098;6.064;2023-04-25T02:42:30;11.30;;;2.83;;
57663;SDS011;43493;53.098;6.064;2023-04-25T02:44:56;13.93;;;2.87;;
57663;SDS011;43493;53.098;6.064;2023-04-25T02:47:22;12.60;;;2.73;;
57663;SDS011;43493;53.098;6.064;2023-04-25T02:49:47;14.03;;;2.93;;
57663;SDS011;43493;53.098;6.064;2023-04-25T02:52:13;8.63;;;2.93;;
57663;SDS011;43493;53.098;6.064;2023-04-25T02:54:39;7.17;;;2.10;;
57663;SDS011;43493;53.098;6.064;2023-04-25T02:57:05;10.20;;;2.77;;
57663;SDS011;43493;53.098;6.064;2023-04-25T02:59:31;13.73;;;3.08;;
57663;SDS011;43493;53.098;6.064;2023-04-25T03:01:57;13.60;;;2.43;;
57663;SDS011;43493;53.098;6.064;2023-04-25T03:04:23;13.53;;;3.13;;
57663;SDS011;43493;53.098;6.064;2023-04-25T03:06:49;8.53;;;2.27;;
57663;SDS011;43493;53.098;6.064;2023-04-25T03:09:15;12.07;;;2.27;;
57663;SDS011;43493;53.098;6.064;2023-04-25T03:11:41;10.70;;;2.37;;
57663;SDS011;43493;53.098;6.064;2023-04-25T03:14:09;12.53;;;2.53;;
57663;SDS011;43493;53.098;6.064;2023-04-25T03:16:35;12.00;;;2.17;;
57663;SDS011;43493;53.098;6.064;2023-04-25T03:19:01;10.90;;;2.00;;
57663;SDS011;43493;53.098;6.064;2023-04-25T03:21:27;10.00;;;2.63;;
57663;SDS011;43493;53.098;6.064;2023-04-25T03:23:53;7.80;;;1.77;;
57663;SDS011;43493;53.098;6.064;2023-04-25T03:26:19;10.50;;;2.00;;
57663;SDS011;43493;53.098;6.064;2023-04-25T03:28:45;10.60;;;1.80;;
57663;SDS011;43493;53.098;6.064;2023-04-25T03:31:11;6.77;;;1.53;;
57663;SDS011;43493;53.098;6.064;2023-04-25T03:33:36;10.73;;;2.13;;
57663;SDS011;43493;53.098;6.064;2023-04-25T03:36:02;7.00;;;1.80;;
57663;SDS011;43493;53.098;6.064;2023-04-25T03:38:28;8.90;;;2.33;;
57663;SDS011;43493;53.098;6.064;2023-04-25T03:40:54;11.10;;;2.20;;
57663;SDS011;43493;53.098;6.064;2023-04-25T03:43:21;8.83;;;2.30;;
57663;SDS011;43493;53.098;6.064;2023-04-25T03:45:47;11.17;;;2.17;;
57663;SDS011;43493;53.098;6.064;2023-04-25T03:48:13;9.00;;;2.53;;
57663;SDS011;43493;53.098;6.064;2023-04-25T03:50:38;13.13;;;2.63;;
57663;SDS011;43493;53.098;6.064;2023-04-25T03:53:04;14.07;;;3.60;;
57663;SDS011;43493;53.098;6.064;2023-04-25T03:55:30;14.37;;;3.40;;
57663;SDS011;43493;53.098;6.064;2023-04-25T03:57:57;11.50;;;2.57;;
57663;SDS011;43493;53.098;6.064;2023-04-25T04:00:23;9.73;;;2.30;;
57663;SDS011;43493;53.098;6.064;2023-04-25T04:02:49;11.43;;;2.20;;
57663;SDS011;43493;53.098;6.064;2023-04-25T04:05:15;12.30;;;2.57;;
57663;SDS011;43493;53.098;6.064;2023-04-25T04:07:41;14.27;;;3.00;;
57663;SDS011;43493;53.098;6.064;2023-04-25T04:10:08;14.90;;;2.38;;
57663;SDS011;43493;53.098;6.064;2023-04-25T04:12:35;12.70;;;3.33;;
57663;SDS011;43493;53.098;6.064;2023-04-25T04:15:04;15.17;;;3.17;;
57663;SDS011;43493;53.098;6.064;2023-04-25T04:17:31;14.83;;;2.70;;
57663;SDS011;43493;53.098;6.064;2023-04-25T04:19:57;15.35;;;2.05;;
57663;SDS011;43493;53.098;6.064;2023-04-25T04:22:24;14.10;;;2.78;;
57663;SDS011;43493;53.098;6.064;2023-04-25T04:24:50;13.80;;;3.10;;
57663;SDS011;43493;53.098;6.064;2023-04-25T04:27:17;17.50;;;2.07;;
57663;SDS011;43493;53.098;6.064;2023-04-25T04:29:44;12.07;;;2.37;;
57663;SDS011;43493;53.098;6.064;2023-04-25T04:32:10;13.32;;;2.85;;
57663;SDS011;43493;53.098;6.064;2023-04-25T04:34:35;12.43;;;2.37;;
57663;SDS011;43493;53.098;6.064;2023-04-25T04:37:02;11.07;;;2.50;;
57663;SDS011;43493;53.098;6.064;2023-04-25T04:39:28;8.83;;;1.90;;
57663;SDS011;43493;53.098;6.064;2023-04-25T04:41:54;16.07;;;2.47;;
57663;SDS011;43493;53.098;6.064;2023-04-25T04:44:19;11.63;;;3.23;;
57663;SDS011;43493;53.098;6.064;2023-04-25T04:46:45;14.43;;;2.72;;
57663;SDS011;43493;53.098;6.064;2023-04-25T04:49:12;15.30;;;2.97;;
57663;SDS011;43493;53.098;6.064;2023-04-25T04:51:39;10.75;;;2.00;;
57663;SDS011;43493;53.098;6.064;2023-04-25T04:54:06;12.63;;;3.00;;
57663;SDS011;43493;53.098;6.064;2023-04-25T04:56:32;10.30;;;2.20;;
57663;SDS011;43493;53.098;6.064;2023-04-25T04:58:58;13.83;;;2.73;;
57663;SDS011;43493;53.098;6.064;2023-04-25T05:01:24;12.90;;;2.15;;
57663;SDS011;43493;53.098;6.064;2023-04-25T05:03:51;7.75;;;2.08;;
57663;SDS011;43493;53.098;6.064;2023-04-25T05:06:18;13.33;;;2.40;;
57663;SDS011;43493;53.098;6.064;2023-04-25T05:08:44;12.32;;;2.20;;
57663;SDS011;43493;53.098;6.064;2023-04-25T05:11:10;8.23;;;1.60;;
57663;SDS011;43493;53.098;6.064;2023-04-25T05:13:36;9.03;;;2.43;;
57663;SDS011;43493;53.098;6.064;2023-04-25T05:16:02;8.17;;;1.90;;
57663;SDS011;43493;53.098;6.064;2023-04-25T05:18:28;9.60;;;1.90;;
57663;SDS011;43493;53.098;6.064;2023-04-25T05:20:53;11.20;;;2.43;;
57663;SDS011;43493;53.098;6.064;2023-04-25T05:23:19;7.10;;;1.70;;
57663;SDS011;43493;53.098;6.064;2023-04-25T05:25:45;13.50;;;2.40;;
57663;SDS011;43493;53.098;6.064;2023-04-25T05:28:12;7.27;;;1.50;;
57663;SDS011;43493;53.098;6.064;2023-04-25T05:30:38;14.13;;;2.57;;
57663;SDS011;43493;53.098;6.064;2023-04-25T05:33:04;10.37;;;2.13;;
57663;SDS011;43493;53.098;6.064;2023-04-25T05:35:29;10.23;;;2.20;;
57663;SDS011;43493;53.098;6.064;2023-04-25T05:37:55;9.90;;;1.67;;
57663;SDS011;43493;53.098;6.064;2023-04-25T05:40:21;12.67;;;2.77;;
57663;SDS011;43493;53.098;6.064;2023-04-25T05:42:47;9.27;;;1.93;;
57663;SDS011;43493;53.098;6.064;2023-04-25T05:45:13;9.97;;;2.60;;
57663;SDS011;43493;53.098;6.064;2023-04-25T05:47:38;13.53;;;2.43;;
57663;SDS011;43493;53.098;6.064;2023-04-25T05:50:04;10.57;;;2.20;;
57663;SDS011;43493;53.098;6.064;2023-04-25T05:52:31;10.37;;;1.80;;
57663;SDS011;43493;53.098;6.064;2023-04-25T05:54:56;9.10;;;2.17;;
57663;SDS011;43493;53.098;6.064;2023-04-25T05:57:25;8.40;;;2.20;;
57663;SDS011;43493;53.098;6.064;2023-04-25T05:59:52;11.73;;;2.10;;
57663;SDS011;43493;53.098;6.064;2023-04-25T06:02:19;6.83;;;1.80;;
57663;SDS011;43493;53.098;6.064;2023-04-25T06:04:46;10.90;;;2.00;;
57663;SDS011;43493;53.098;6.064;2023-04-25T06:07:14;8.73;;;1.57;;
57663;SDS011;43493;53.098;6.064;2023-04-25T06:09:40;12.80;;;2.00;;
57663;SDS011;43493;53.098;6.064;2023-04-25T06:12:06;11.57;;;1.97;;
57663;SDS011;43493;53.098;6.064;2023-04-25T06:14:32;11.30;;;2.23;;
57663;SDS011;43493;53.098;6.064;2023-04-25T06:16:58;8.13;;;2.10;;
57663;SDS011;43493;53.098;6.064;2023-04-25T06:19:24;9.47;;;1.60;;
57663;SDS011;43493;53.098;6.064;2023-04-25T06:21:50;7.27;;;1.80;;
57663;SDS011;43493;53.098;6.064;2023-04-25T06:24:15;8.17;;;1.80;;
57663;SDS011;43493;53.098;6.064;2023-04-25T06:26:41;7.30;;;1.83;;
57663;SDS011;43493;53.098;6.064;2023-04-25T06:29:07;6.27;;;2.20;;
57663;SDS011;43493;53.098;6.064;2023-04-25T06:31:32;6.47;;;1.30;;
57663;SDS011;43493;53.098;6.064;2023-04-25T06:33:58;10.23;;;1.50;;
57663;SDS011;43493;53.098;6.064;2023-04-25T06:36:24;5.73;;;1.13;;
57663;SDS011;43493;53.098;6.064;2023-04-25T06:38:53;6.13;;;1.53;;
57663;SDS011;43493;53.098;6.064;2023-04-25T06:41:20;6.03;;;1.83;;
57663;SDS011;43493;53.098;6.064;2023-04-25T06:43:46;6.80;;;1.50;;
57663;SDS011;43493;53.098;6.064;2023-04-25T06:46:11;6.37;;;1.77;;
57663;SDS011;43493;53.098;6.064;2023-04-25T06:48:37;7.43;;;1.47;;
57663;SDS011;43493;53.098;6.064;2023-04-25T06:51:03;7.20;;;1.60;;
57663;SDS011;43493;53.098;6.064;2023-04-25T06:53:29;9.27;;;2.07;;
57663;SDS011;43493;53.098;6.064;2023-04-25T06:55:55;10.90;;;1.87;;
57663;SDS011;43493;53.098;6.064;2023-04-25T06:58:20;6.20;;;1.80;;
57663;SDS011;43493;53.098;6.064;2023-04-25T07:00:46;11.13;;;1.93;;
57663;SDS011;43493;53.098;6.064;2023-04-25T07:03:12;5.63;;;2.20;;
57663;SDS011;43493;53.098;6.064;2023-04-25T07:05:37;10.40;;;2.53;;
57663;SDS011;43493;53.098;6.064;2023-04-25T07:08:03;6.97;;;2.23;;
57663;SDS011;43493;53.098;6.064;2023-04-25T07:10:29;11.43;;;2.43;;
57663;SDS011;43493;53.098;6.064;2023-04-25T07:12:55;13.60;;;3.07;;
57663;SDS011;43493;53.098;6.064;2023-04-25T07:15:21;7.70;;;1.73;;
57663;SDS011;43493;53.098;6.064;2023-04-25T07:17:46;7.83;;;1.80;;
57663;SDS011;43493;53.098;6.064;2023-04-25T07:20:12;6.80;;;1.90;;
57663;SDS011;43493;53.098;6.064;2023-04-25T07:22:38;8.80;;;1.63;;
57663;SDS011;43493;53.098;6.064;2023-04-25T07:25:04;7.77;;;2.00;;
57663;SDS011;43493;53.098;6.064;2023-04-25T07:27:31;9.73;;;2.03;;
57663;SDS011;43493;53.098;6.064;2023-04-25T07:29:57;6.27;;;1.50;;
57663;SDS011;43493;53.098;6.064;2023-04-25T07:32:22;6.53;;;1.83;;
57663;SDS011;43493;53.098;6.064;2023-04-25T07:34:48;9.90;;;1.67;;
57663;SDS011;43493;53.098;6.064;2023-04-25T07:37:14;8.27;;;1.60;;
57663;SDS011;43493;53.098;6.064;2023-04-25T07:39:40;6.63;;;1.83;;
57663;SDS011;43493;53.098;6.064;2023-04-25T07:42:06;6.30;;;1.50;;
57663;SDS011;43493;53.098;6.064;2023-04-25T07:44:35;6.17;;;1.70;;
57663;SDS011;43493;53.098;6.064;2023-04-25T07:47:08;8.70;;;1.70;;
57663;SDS011;43493;53.098;6.064;2023-04-25T07:49:37;8.07;;;1.93;;
57663;SDS011;43493;53.098;6.064;2023-04-25T07:52:04;6.47;;;1.67;;
57663;SDS011;43493;53.098;6.064;2023-04-25T07:54:34;11.53;;;2.23;;
57663;SDS011;43493;53.098;6.064;2023-04-25T07:56:59;7.43;;;2.43;;
57663;SDS011;43493;53.098;6.064;2023-04-25T07:59:25;8.77;;;2.00;;
57663;SDS011;43493;53.098;6.064;2023-04-25T08:01:51;9.90;;;2.23;;
57663;SDS011;43493;53.098;6.064;2023-04-25T08:04:17;8.43;;;2.00;;
57663;SDS011;43493;53.098;6.064;2023-04-25T08:06:43;10.30;;;2.00;;
57663;SDS011;43493;53.098;6.064;2023-04-25T08:09:09;8.00;;;1.90;;
57663;SDS011;43493;53.098;6.064;2023-04-25T08:11:35;6.63;;;1.90;;
57663;SDS011;43493;53.098;6.064;2023-04-25T08:14:01;7.77;;;2.20;;
57663;SDS011;43493;53.098;6.064;2023-04-25T08:16:27;8.83;;;2.00;;
57663;SDS011;43493;53.098;6.064;2023-04-25T08:18:53;8.57;;;2.27;;
57663;SDS011;43493;53.098;6.064;2023-04-25T08:21:19;7.80;;;2.13;;
57663;SDS011;43493;53.098;6.064;2023-04-25T08:23:45;7.17;;;1.63;;
57663;SDS011;43493;53.098;6.064;2023-04-25T08:26:11;7.20;;;1.80;;
57663;SDS011;43493;53.098;6.064;2023-04-25T08:28:37;10.30;;;1.80;;
57663;SDS011;43493;53.098;6.064;2023-04-25T08:31:03;6.73;;;1.77;;
57663;SDS011;43493;53.098;6.064;2023-04-25T08:33:29;8.63;;;1.80;;
57663;SDS011;43493;53.098;6.064;2023-04-25T08:35:55;8.90;;;1.47;;
57663;SDS011;43493;53.098;6.064;2023-04-25T08:38:21;9.87;;;2.47;;
57663;SDS011;43493;53.098;6.064;2023-04-25T08:40:48;7.70;;;1.80;;
57663;SDS011;43493;53.098;6.064;2023-04-25T08:43:18;9.63;;;2.30;;
57663;SDS011;43493;53.098;6.064;2023-04-25T08:45:45;12.77;;;2.30;;
57663;SDS011;43493;53.098;6.064;2023-04-25T08:48:12;9.40;;;2.10;;
57663;SDS011;43493;53.098;6.064;2023-04-25T08:50:39;6.93;;;2.07;;
57663;SDS011;43493;53.098;6.064;2023-04-25T08:53:09;8.47;;;1.70;;
57663;SDS011;43493;53.098;6.064;2023-04-25T08:55:43;6.83;;;1.60;;
57663;SDS011;43493;53.098;6.064;2023-04-25T08:58:11;7.60;;;1.40;;
57663;SDS011;43493;53.098;6.064;2023-04-25T09:00:38;8.17;;;1.70;;
57663;SDS011;43493;53.098;6.064;2023-04-25T09:03:04;7.50;;;1.60;;
57663;SDS011;43493;53.098;6.064;2023-04-25T09:05:31;7.77;;;1.53;;
57663;SDS011;43493;53.098;6.064;2023-04-25T09:07:58;10.13;;;1.80;;
57663;SDS011;43493;53.098;6.064;2023-04-25T09:10:26;8.37;;;1.93;;
57663;SDS011;43493;53.098;6.064;2023-04-25T09:13:26;8.93;;;2.03;;
57663;SDS011;43493;53.098;6.064;2023-04-25T09:15:51;7.73;;;1.60;;
57663;SDS011;43493;53.098;6.064;2023-04-25T09:18:25;11.03;;;2.23;;
57663;SDS011;43493;53.098;6.064;2023-04-25T09:20:56;5.20;;;1.60;;
57663;SDS011;43493;53.098;6.064;2023-04-25T09:23:23;7.53;;;1.63;;
57663;SDS011;43493;53.098;6.064;2023-04-25T09:25:50;9.17;;;1.90;;
57663;SDS011;43493;53.098;6.064;2023-04-25T09:28:24;8.50;;;1.70;;
57663;SDS011;43493;53.098;6.064;2023-04-25T09:30:54;6.73;;;1.87;;
57663;SDS011;43493;53.098;6.064;2023-04-25T09:33:26;7.43;;;1.93;;
57663;SDS011;43493;53.098;6.064;2023-04-25T09:36:01;7.23;;;1.57;;
57663;SDS011;43493;53.098;6.064;2023-04-25T09:38:28;10.20;;;1.50;;
57663;SDS011;43493;53.098;6.064;2023-04-25T09:40:56;8.17;;;1.87;;
57663;SDS011;43493;53.098;6.064;2023-04-25T09:43:22;7.93;;;2.00;;
57663;SDS011;43493;53.098;6.064;2023-04-25T09:45:48;6.70;;;2.03;;
57663;SDS011;43493;53.098;6.064;2023-04-25T09:48:20;8.40;;;1.53;;
57663;SDS011;43493;53.098;6.064;2023-04-25T09:51:06;6.30;;;1.60;;
57663;SDS011;43493;53.098;6.064;2023-04-25T09:53:43;7.37;;;1.50;;
57663;SDS011;43493;53.098;6.064;2023-04-25T09:56:19;11.63;;;1.90;;
57663;SDS011;43493;53.098;6.064;2023-04-25T09:58:46;8.57;;;1.60;;
57663;SDS011;43493;53.098;6.064;2023-04-25T10:01:13;8.17;;;1.90;;
57663;SDS011;43493;53.098;6.064;2023-04-25T10:03:41;8.00;;;1.73;;
57663;SDS011;43493;53.098;6.064;2023-04-25T10:06:18;9.20;;;1.87;;
57663;SDS011;43493;53.098;6.064;2023-04-25T10:08:45;7.43;;;2.00;;
57663;SDS011;43493;53.098;6.064;2023-04-25T10:11:15;5.67;;;1.70;;
57663;SDS011;43493;53.098;6.064;2023-04-25T10:13:42;7.87;;;1.90;;
57663;SDS011;43493;53.098;6.064;2023-04-25T10:16:08;9.60;;;2.43;;
57663;SDS011;43493;53.098;6.064;2023-04-25T10:18:34;8.33;;;1.70;;
57663;SDS011;43493;53.098;6.064;2023-04-25T10:21:04;8.33;;;2.03;;
57663;SDS011;43493;53.098;6.064;2023-04-25T10:23:31;8.20;;;1.60;;
57663;SDS011;43493;53.098;6.064;2023-04-25T10:25:59;7.63;;;1.63;;
57663;SDS011;43493;53.098;6.064;2023-04-25T10:28:25;10.47;;;1.90;;
57663;SDS011;43493;53.098;6.064;2023-04-25T10:31:04;6.13;;;1.80;;
57663;SDS011;43493;53.098;6.064;2023-04-25T10:33:36;6.93;;;1.60;;
57663;SDS011;43493;53.098;6.064;2023-04-25T10:38:38;9.23;;;1.80;;
57663;SDS011;43493;53.098;6.064;2023-04-25T10:41:08;7.07;;;2.03;;
57663;SDS011;43493;53.098;6.064;2023-04-25T10:46:03;7.70;;;1.40;;
57663;SDS011;43493;53.098;6.064;2023-04-25T10:48:37;9.47;;;1.87;;
57663;SDS011;43493;53.098;6.064;2023-04-25T10:51:20;9.73;;;2.10;;
57663;SDS011;43493;53.098;6.064;2023-04-25T10:53:57;12.75;;;2.15;;
57663;SDS011;43493;53.098;6.064;2023-04-25T10:56:25;7.07;;;1.77;;
57663;SDS011;43493;53.098;6.064;2023-04-25T10:59:10;8.40;;;2.03;;
57663;SDS011;43493;53.098;6.064;2023-04-25T11:04:20;5.77;;;1.93;;
57663;SDS011;43493;53.098;6.064;2023-04-25T11:09:28;9.13;;;2.20;;
57663;SDS011;43493;53.098;6.064;2023-04-25T11:11:58;8.10;;;2.37;;
57663;SDS011;43493;53.098;6.064;2023-04-25T11:14:25;19.50;;;3.23;;
57663;SDS011;43493;53.098;6.064;2023-04-25T11:16:58;8.57;;;1.70;;
57663;SDS011;43493;53.098;6.064;2023-04-25T11:19:25;6.47;;;1.70;;
57663;SDS011;43493;53.098;6.064;2023-04-25T11:21:54;8.00;;;2.23;;
57663;SDS011;43493;53.098;6.064;2023-04-25T11:24:26;11.20;;;2.20;;
57663;SDS011;43493;53.098;6.064;2023-04-25T11:26:53;7.43;;;2.10;;
57663;SDS011;43493;53.098;6.064;2023-04-25T11:29:21;9.57;;;1.60;;
57663;SDS011;43493;53.098;6.064;2023-04-25T11:31:52;7.37;;;1.60;;
57663;SDS011;43493;53.098;6.064;2023-04-25T11:34:18;9.83;;;2.37;;
57663;SDS011;43493;53.098;6.064;2023-04-25T11:36:44;7.50;;;1.93;;
57663;SDS011;43493;53.098;6.064;2023-04-25T11:39:11;7.37;;;1.83;;
57663;SDS011;43493;53.098;6.064;2023-04-25T11:41:37;6.43;;;1.70;;
57663;SDS011;43493;53.098;6.064;2023-04-25T11:44:03;7.23;;;1.73;;
57663;SDS011;43493;53.098;6.064;2023-04-25T11:46:30;5.40;;;1.43;;
57663;SDS011;43493;53.098;6.064;2023-04-25T11:48:59;6.90;;;1.40;;
57663;SDS011;43493;53.098;6.064;2023-04-25T11:51:25;7.67;;;1.93;;
57663;SDS011;43493;53.098;6.064;2023-04-25T11:53:51;8.27;;;1.70;;
57663;SDS011;43493;53.098;6.064;2023-04-25T11:56:17;7.83;;;1.50;;
57663;SDS011;43493;53.098;6.064;2023-04-25T11:58:59;7.37;;;1.93;;
57663;SDS011;43493;53.098;6.064;2023-04-25T12:01:29;7.20;;;1.77;;
57663;SDS011;43493;53.098;6.064;2023-04-25T12:03:57;6.93;;;1.90;;
57663;SDS011;43493;53.098;6.064;2023-04-25T12:06:27;8.97;;;1.70;;
57663;SDS011;43493;53.098;6.064;2023-04-25T12:09:00;5.57;;;1.23;;
57663;SDS011;43493;53.098;6.064;2023-04-25T12:11:26;4.20;;;1.00;;
57663;SDS011;43493;53.098;6.064;2023-04-25T12:13:52;6.83;;;1.50;;
57663;SDS011;43493;53.098;6.064;2023-04-25T12:16:19;8.13;;;1.97;;
57663;SDS011;43493;53.098;6.064;2023-04-25T12:18:44;7.37;;;1.77;;
57663;SDS011;43493;53.098;6.064;2023-04-25T12:21:10;9.70;;;1.90;;
57663;SDS011;43493;53.098;6.064;2023-04-25T12:23:38;11.30;;;2.77;;
57663;SDS011;43493;53.098;6.064;2023-04-25T12:26:04;6.77;;;1.70;;
57663;SDS011;43493;53.098;6.064;2023-04-25T12:28:31;9.87;;;1.90;;
57663;SDS011;43493;53.098;6.064;2023-04-25T12:31:01;9.47;;;1.63;;
57663;SDS011;43493;53.098;6.064;2023-04-25T12:33:31;8.87;;;1.97;;
57663;SDS011;43493;53.098;6.064;2023-04-25T12:35:58;8.27;;;2.20;;
57663;SDS011;43493;53.098;6.064;2023-04-25T12:38:29;9.17;;;2.07;;
57663;SDS011;43493;53.098;6.064;2023-04-25T12:40:57;6.30;;;1.93;;
57663;SDS011;43493;53.098;6.064;2023-04-25T12:43:23;9.03;;;2.10;;
57663;SDS011;43493;53.098;6.064;2023-04-25T12:45:50;7.00;;;1.33;;
57663;SDS011;43493;53.098;6.064;2023-04-25T12:48:19;5.97;;;1.30;;
57663;SDS011;43493;53.098;6.064;2023-04-25T12:50:46;9.07;;;2.10;;
57663;SDS011;43493;53.098;6.064;2023-04-25T12:53:19;5.57;;;1.30;;
57663;SDS011;43493;53.098;6.064;2023-04-25T12:55:47;5.83;;;1.20;;
57663;SDS011;43493;53.098;6.064;2023-04-25T12:58:13;5.93;;;1.60;;
57663;SDS011;43493;53.098;6.064;2023-04-25T13:00:40;8.70;;;1.60;;
57663;SDS011;43493;53.098;6.064;2023-04-25T13:03:07;8.50;;;1.40;;
57663;SDS011;43493;53.098;6.064;2023-04-25T13:05:33;14.73;;;2.20;;
57663;SDS011;43493;53.098;6.064;2023-04-25T13:07:58;8.90;;;1.63;;
57663;SDS011;43493;53.098;6.064;2023-04-25T13:10:24;12.97;;;2.30;;
57663;SDS011;43493;53.098;6.064;2023-04-25T13:12:50;7.80;;;1.60;;
57663;SDS011;43493;53.098;6.064;2023-04-25T13:15:16;7.47;;;1.50;;
57663;SDS011;43493;53.098;6.064;2023-04-25T13:17:42;6.27;;;1.57;;
57663;SDS011;43493;53.098;6.064;2023-04-25T13:20:08;8.07;;;2.20;;
57663;SDS011;43493;53.098;6.064;2023-04-25T13:22:37;9.23;;;1.57;;
57663;SDS011;43493;53.098;6.064;2023-04-25T13:25:03;6.53;;;1.53;;
57663;SDS011;43493;53.098;6.064;2023-04-25T13:27:30;8.77;;;2.07;;
57663;SDS011;43493;53.098;6.064;2023-04-25T13:29:58;6.67;;;1.50;;
57663;SDS011;43493;53.098;6.064;2023-04-25T13:32:23;13.80;;;1.90;;
57663;SDS011;43493;53.098;6.064;2023-04-25T13:34:50;7.43;;;1.90;;
57663;SDS011;43493;53.098;6.064;2023-04-25T13:37:16;20.17;;;2.80;;
57663;SDS011;43493;53.098;6.064;2023-04-25T13:39:42;9.17;;;1.53;;
57663;SDS011;43493;53.098;6.064;2023-04-25T13:42:08;5.77;;;1.70;;
57663;SDS011;43493;53.098;6.064;2023-04-25T13:44:33;8.37;;;1.83;;
57663;SDS011;43493;53.098;6.064;2023-04-25T13:46:59;9.90;;;2.77;;
57663;SDS011;43493;53.098;6.064;2023-04-25T13:49:26;7.33;;;1.53;;
57663;SDS011;43493;53.098;6.064;2023-04-25T13:51:51;8.63;;;2.17;;
57663;SDS011;43493;53.098;6.064;2023-04-25T13:54:17;10.80;;;2.63;;
57663;SDS011;43493;53.098;6.064;2023-04-25T13:56:43;8.90;;;1.70;;
57663;SDS011;43493;53.098;6.064;2023-04-25T13:59:08;8.17;;;1.87;;
57663;SDS011;43493;53.098;6.064;2023-04-25T14:01:34;9.17;;;2.07;;
57663;SDS011;43493;53.098;6.064;2023-04-25T14:04:01;9.70;;;1.97;;
57663;SDS011;43493;53.098;6.064;2023-04-25T14:06:28;8.27;;;1.90;;
57663;SDS011;43493;53.098;6.064;2023-04-25T14:08:54;8.60;;;1.83;;
57663;SDS011;43493;53.098;6.064;2023-04-25T14:11:21;4.67;;;1.93;;
57663;SDS011;43493;53.098;6.064;2023-04-25T14:13:47;10.97;;;2.07;;
57663;SDS011;43493;53.098;6.064;2023-04-25T14:16:14;6.67;;;1.30;;
57663;SDS011;43493;53.098;6.064;2023-04-25T14:18:40;11.10;;;1.53;;
57663;SDS011;43493;53.098;6.064;2023-04-25T14:21:06;9.70;;;1.77;;
57663;SDS011;43493;53.098;6.064;2023-04-25T14:23:32;7.20;;;1.73;;
57663;SDS011;43493;53.098;6.064;2023-04-25T14:25:58;6.80;;;1.60;;
57663;SDS011;43493;53.098;6.064;2023-04-25T14:28:23;5.00;;;1.33;;
57663;SDS011;43493;53.098;6.064;2023-04-25T14:30:49;5.80;;;1.77;;
57663;SDS011;43493;53.098;6.064;2023-04-25T14:33:15;6.03;;;1.53;;
57663;SDS011;43493;53.098;6.064;2023-04-25T14:35:40;5.40;;;1.20;;
57663;SDS011;43493;53.098;6.064;2023-04-25T14:38:06;9.03;;;1.80;;
57663;SDS011;43493;53.098;6.064;2023-04-25T14:40:32;7.70;;;1.60;;
57663;SDS011;43493;53.098;6.064;2023-04-25T14:42:58;7.90;;;1.70;;
57663;SDS011;43493;53.098;6.064;2023-04-25T14:45:24;6.93;;;1.80;;
57663;SDS011;43493;53.098;6.064;2023-04-25T14:47:50;8.53;;;2.00;;
57663;SDS011;43493;53.098;6.064;2023-04-25T14:50:16;9.97;;;1.80;;
57663;SDS011;43493;53.098;6.064;2023-04-25T14:52:42;10.50;;;1.90;;